Time;durP1;ratioP1;P1;durP2;ratioP2;P2;SDS_P1;SDS_P2;PMS_P1;PMS_P2;Temp;Humidity;BMP_temperature;BMP_pressure;BME280_temperature;BME280_humidity;BME280_pressure;Samples;Min_cycle;Max_cycle;Signal;HPM_P1;HPM_P2
2021/06/08 00:01:51;;;;;;;;;;;;;;;;;;5051136;28;19992;-70
2021/06/08 00:04:17;;;;;;;;;;;;;;;;;;5050293;28;19912;-70
2021/06/08 00:06:43;;;;;;;;;;;;;;;;;;5050793;28;20288;-71
2021/06/08 00:09:09;;;;;;;;;;;;;;;;;;5050557;28;19912;-70
2021/06/08 00:11:34;;;;;;;;;;;;;;;;;;5050993;28;19913;-69
2021/06/08 00:14:00;;;;;;;;;;;;;;;;;;5051128;28;19979;-68
2021/06/08 00:16:26;;;;;;;;;;;;;;;;;;5051161;28;20273;-68
2021/06/08 00:18:52;;;;;;;;;;;;;;;;;;5033232;28;19916;-69
2021/06/08 00:21:18;;;;;;;;;;;;;;;;;;5050248;28;19917;-69
2021/06/08 00:23:44;;;;;;;;;;;;;;;;;;5050875;28;19971;-68
2021/06/08 00:26:09;;;;;;;;;;;;;;;;;;5032858;28;20406;-69
2021/06/08 00:28:35;;;;;;;;;;;;;;;;;;5051064;28;20281;-69
2021/06/08 00:31:01;;;;;;;;;;;;;;;;;;5050047;28;19983;-68
2021/06/08 00:33:27;;;;;;;;;;;;;;;;;;5050668;28;19913;-68
2021/06/08 00:35:53;;;;;;;;;;;;;;;;;;5050965;28;19916;-69
2021/06/08 00:38:19;;;;;;;;;;;;;;;;;;5050772;28;19917;-68
2021/06/08 00:40:45;;;;;;;;;;;;;;;;;;5050213;28;20427;-68
2021/06/08 00:43:10;;;;;;;;;;;;;;;;;;5050623;28;19936;-69
2021/06/08 00:45:36;;;;;;;;;;;;;;;;;;5050711;28;19939;-68
2021/06/08 00:48:02;;;;;;;;;;;;;;;;;;5050726;28;19956;-70
2021/06/08 00:50:28;;;;;;;;;;;;;;;;;;5049397;28;19912;-70
2021/06/08 00:52:54;;;;;;;;;;;;;;;;;;5050737;28;19923;-70
2021/06/08 00:55:20;;;;;;;;;;;;;;;;;;5050886;28;19962;-69
2021/06/08 00:57:46;;;;;;;;;;;;;;;;;;5048548;28;19920;-69
2021/06/08 01:00:12;;;;;;;;;;;;;;;;;;5030336;28;19994;-69
2021/06/08 01:02:37;;;;;;;;;;;;;;;;;;5033196;28;19917;-69
2021/06/08 01:05:03;;;;;;;;;;;;;;;;;;5051026;28;20008;-69
2021/06/08 01:07:29;;;;;;;;;;;;;;;;;;5051045;28;19935;-69
2021/06/08 01:09:56;;;;;;;;;;;;;;;;;;5049592;28;19960;-68
2021/06/08 01:12:37;;;;;;;;;;;;;;;;;;5017552;28;19920;-69
2021/06/08 01:15:03;;;;;;;;;;;;;;;;;;5052750;28;20038;-69
2021/06/08 01:17:29;;;;;;;;;;;;;;;;;;5054451;28;19924;-69
2021/06/08 01:19:55;;;;;;;;;;;;;;;;;;5053683;28;19915;-70
2021/06/08 01:22:21;;;;;;;;;;;;;;;;;;5054356;28;19909;-69
2021/06/08 01:24:46;;;;;;;;;;;;;;;;;;5054206;28;19921;-68
2021/06/08 01:27:12;;;;;;;;;;;;;;;;;;5054236;28;19909;-69
2021/06/08 01:29:38;;;;;;;;;;;;;;;;;;5053314;28;19909;-69
2021/06/08 01:32:04;;;;;;;;;;;;;;;;;;5054338;28;19913;-69
2021/06/08 01:34:30;;;;;;;;;;;;;;;;;;5053542;28;19912;-69
2021/06/08 01:36:56;;;;;;;;;;;;;;;;;;5053605;28;20426;-69
2021/06/08 01:39:22;;;;;;;;;;;;;;;;;;5053331;28;20283;-69
2021/06/08 01:41:47;;;;;;;;;;;;;;;;;;5053669;28;19916;-70
2021/06/08 01:44:13;;;;;;;;;;;;;;;;;;5053719;28;19920;-69
2021/06/08 01:46:39;;;;;;;;;;;;;;;;;;5053544;28;20519;-69
2021/06/08 01:49:05;;;;;;;;;;;;;;;;;;5053323;28;19955;-69
2021/06/08 01:51:31;;;;;;;;;;;;;;;;;;5053557;28;19913;-69
2021/06/08 01:53:57;;;;;;;;;;;;;;;;;;5053539;28;20081;-68
2021/06/08 01:56:23;;;;;;;;;;;;;;;;;;5053168;28;19923;-68
2021/06/08 01:58:49;;;;;;;;;;;;;;;;;;5053173;28;19970;-69
2021/06/08 02:01:15;;;;;;;;;;;;;;;;;;5052120;28;20295;-69
2021/06/08 02:03:40;;;;;;;;;;;;;;;;;;5044619;28;19913;-69
2021/06/08 02:06:06;;;;;;;;;;;;;;;;;;5045996;28;19913;-69
2021/06/08 02:08:32;;;;;;;;;;;;;;;;;;5053249;28;20279;-69
2021/06/08 02:10:58;;;;;;;;;;;;;;;;;;5052550;28;19925;-69
2021/06/08 02:13:24;;;;;;;;;;;;;;;;;;5053183;28;19999;-70
2021/06/08 02:15:50;;;;;;;;;;;;;;;;;;5052998;28;19963;-69
2021/06/08 02:18:16;;;;;;;;;;;;;;;;;;5053160;28;20483;-70
2021/06/08 02:20:42;;;;;;;;;;;;;;;;;;5052105;28;20311;-70
2021/06/08 02:23:10;;;;;;;;;;;;;;;;;;5035268;28;19908;-69
2021/06/08 02:25:36;;;;;;;;;;;;;;;;;;5051835;28;20415;-70
2021/06/08 02:28:02;;;;;;;;;;;;;;;;;;5052850;28;19913;-69
2021/06/08 02:30:28;;;;;;;;;;;;;;;;;;5052156;28;19913;-68
2021/06/08 02:32:54;;;;;;;;;;;;;;;;;;5052669;28;20465;-69
2021/06/08 02:35:20;;;;;;;;;;;;;;;;;;5052598;28;19928;-69
2021/06/08 02:37:46;;;;;;;;;;;;;;;;;;5052469;28;19916;-70
2021/06/08 02:40:13;;;;;;;;;;;;;;;;;;5052116;28;19916;-69
2021/06/08 02:42:38;;;;;;;;;;;;;;;;;;5052665;28;19913;-69
2021/06/08 02:45:04;;;;;;;;;;;;;;;;;;5047454;28;19920;-69
2021/06/08 02:47:30;;;;;;;;;;;;;;;;;;5052338;28;19919;-69
2021/06/08 02:49:56;;;;;;;;;;;;;;;;;;5050582;28;19913;-69
2021/06/08 02:52:22;;;;;;;;;;;;;;;;;;5052212;28;20399;-69
2021/06/08 02:54:48;;;;;;;;;;;;;;;;;;5052251;28;19931;-70
2021/06/08 02:57:13;;;;;;;;;;;;;;;;;;5052075;28;19921;-69
2021/06/08 02:59:39;;;;;;;;;;;;;;;;;;5049793;28;19917;-70
2021/06/08 03:02:05;;;;;;;;;;;;;;;;;;5051753;28;20293;-68
2021/06/08 03:04:31;;;;;;;;;;;;;;;;;;5051803;28;20016;-68
2021/06/08 03:06:57;;;;;;;;;;;;;;;;;;5048621;28;19913;-69
2021/06/08 03:09:23;;;;;;;;;;;;;;;;;;5045202;28;19920;-70
2021/06/08 03:11:49;;;;;;;;;;;;;;;;;;5049077;28;20023;-69
2021/06/08 03:14:15;;;;;;;;;;;;;;;;;;5052416;28;19908;-69
2021/06/08 03:16:41;;;;;;;;;;;;;;;;;;5051654;28;20308;-68
2021/06/08 03:19:07;;;;;;;;;;;;;;;;;;5051631;28;19913;-69
2021/06/08 03:21:33;;;;;;;;;;;;;;;;;;5051366;28;19908;-69
2021/06/08 03:23:59;;;;;;;;;;;;;;;;;;5051970;28;20003;-70
2021/06/08 03:26:25;;;;;;;;;;;;;;;;;;5043171;28;20392;-70
2021/06/08 03:28:51;;;;;;;;;;;;;;;;;;5051543;28;19921;-70
2021/06/08 03:31:16;;;;;;;;;;;;;;;;;;5050800;28;19916;-70
2021/06/08 03:33:42;;;;;;;;;;;;;;;;;;5051470;28;19912;-70
2021/06/08 03:36:08;;;;;;;;;;;;;;;;;;5051347;28;19917;-69
2021/06/08 03:38:34;;;;;;;;;;;;;;;;;;5051687;28;19921;-69
2021/06/08 03:41:00;;;;;;;;;;;;;;;;;;5032659;28;19913;-69
2021/06/08 03:43:26;;;;;;;;;;;;;;;;;;5051479;28;20356;-69
2021/06/08 03:45:52;;;;;;;;;;;;;;;;;;5051030;28;20281;-69
2021/06/08 03:48:17;;;;;;;;;;;;;;;;;;5051370;28;19909;-70
2021/06/08 03:50:43;;;;;;;;;;;;;;;;;;5050699;28;19913;-69
2021/06/08 03:53:09;;;;;;;;;;;;;;;;;;5050965;28;20293;-70
2021/06/08 03:55:35;;;;;;;;;;;;;;;;;;5051115;28;19912;-70
2021/06/08 03:58:07;;;;;;;;;;;;;;;;;;5050989;28;19909;-70
2021/06/08 04:00:32;;;;;;;;;;;;;;;;;;5050710;28;19909;-69
2021/06/08 04:02:58;;;;;;;;;;;;;;;;;;5051044;28;20356;-69
2021/06/08 04:05:24;;;;;;;;;;;;;;;;;;5050978;28;19917;-69
2021/06/08 04:07:50;;;;;;;;;;;;;;;;;;5051053;28;19909;-69
2021/06/08 04:10:16;;;;;;;;;;;;;;;;;;5050090;28;19909;-69
2021/06/08 04:12:42;;;;;;;;;;;;;;;;;;5050699;28;20369;-69
2021/06/08 04:15:07;;;;;;;;;;;;;;;;;;5050912;28;19920;-70
2021/06/08 04:17:33;;;;;;;;;;;;;;;;;;5046430;28;19980;-70
2021/06/08 04:19:59;;;;;;;;;;;;;;;;;;5031973;28;19913;-69
2021/06/08 04:22:25;;;;;;;;;;;;;;;;;;5050771;28;20000;-64
2021/06/08 04:24:51;;;;;;;;;;;;;;;;;;5050754;28;19916;-61
2021/06/08 04:27:17;;;;;;;;;;;;;;;;;;5050782;28;20280;-62
2021/06/08 04:29:43;;;;;;;;;;;;;;;;;;5043100;28;19913;-63
2021/06/08 04:32:08;;;;;;;;;;;;;;;;;;5040306;28;19980;-63
2021/06/08 04:34:34;;;;;;;;;;;;;;;;;;5023567;28;19909;-63
2021/06/08 04:37:00;;;;;;;;;;;;;;;;;;5044156;28;19920;-62
2021/06/08 04:39:26;;;;;;;;;;;;;;;;;;5043990;28;19912;-63
2021/06/08 04:41:52;;;;;;;;;;;;;;;;;;5049872;28;19917;-63
2021/06/08 04:44:20;;;;;;;;;;;;;;;;;;5050403;28;20438;-63
2021/06/08 04:46:46;;;;;;;;;;;;;;;;;;5049516;28;19999;-63
2021/06/08 04:49:16;;;;;;;;;;;;;;;;;;5048741;28;20012;-62
2021/06/08 04:51:42;;;;;;;;;;;;;;;;;;5043177;28;19955;-62
2021/06/08 04:54:08;;;;;;;;;;;;;;;;;;5046556;28;19913;-62
2021/06/08 04:56:34;;;;;;;;;;;;;;;;;;5047438;28;19924;-62
2021/06/08 04:59:00;;;;;;;;;;;;;;;;;;5045827;28;20011;-63
2021/06/08 05:01:26;;;;;;;;;;;;;;;;;;5053940;28;19928;-63
2021/06/08 05:03:52;;;;;;;;;;;;;;;;;;5053730;28;19913;-64
2021/06/08 05:06:17;;;;;;;;;;;;;;;;;;5053063;28;19955;-63
2021/06/08 05:08:43;;;;;;;;;;;;;;;;;;5053552;28;19991;-63
2021/06/08 05:11:11;;;;;;;;;;;;;;;;;;5052917;28;20288;-65
2021/06/08 05:13:37;;;;;;;;;;;;;;;;;;5033983;28;19917;-64
2021/06/08 05:16:03;;;;;;;;;;;;;;;;;;5052329;28;20445;-64
2021/06/08 05:18:29;;;;;;;;;;;;;;;;;;5044757;28;20066;-63
2021/06/08 05:20:55;;;;;;;;;;;;;;;;;;5048757;28;19908;-62
2021/06/08 05:23:21;;;;;;;;;;;;;;;;;;5053329;28;19909;-63
2021/06/08 05:25:46;;;;;;;;;;;;;;;;;;5053319;28;19920;-64
2021/06/08 05:28:12;;;;;;;;;;;;;;;;;;5053002;28;19913;-64
2021/06/08 05:30:38;;;;;;;;;;;;;;;;;;5050080;28;19912;-60
2021/06/08 05:33:04;;;;;;;;;;;;;;;;;;5048574;28;19913;-72
2021/06/08 05:35:30;;;;;;;;;;;;;;;;;;5040007;28;20296;-70
2021/06/08 05:37:56;;;;;;;;;;;;;;;;;;5047310;28;19940;-69
2021/06/08 05:40:22;;;;;;;;;;;;;;;;;;5050752;28;19919;-71
2021/06/08 05:42:48;;;;;;;;;;;;;;;;;;5053203;28;20372;-68
2021/06/08 05:45:14;;;;;;;;;;;;;;;;;;5052857;28;19931;-70
2021/06/08 05:47:40;;;;;;;;;;;;;;;;;;5037301;28;20417;-71
2021/06/08 05:50:06;;;;;;;;;;;;;;;;;;5036191;28;20320;-72
2021/06/08 05:52:32;;;;;;;;;;;;;;;;;;5047274;28;20012;-71
2021/06/08 05:54:58;;;;;;;;;;;;;;;;;;5053540;28;19909;-70
2021/06/08 05:57:24;;;;;;;;;;;;;;;;;;5051269;28;19920;-70
2021/06/08 05:59:49;;;;;;;;;;;;;;;;;;5047861;28;19913;-70
2021/06/08 06:02:15;;;;;;;;;;;;;;;;;;5042787;28;19910;-69
2021/06/08 06:04:41;;;;;;;;;;;;;;;;;;5041858;28;19917;-70
2021/06/08 06:07:07;;;;;;;;;;;;;;;;;;5045124;28;19912;-70
2021/06/08 06:09:33;;;;;;;;;;;;;;;;;;5042322;28;20448;-70
2021/06/08 06:11:59;;;;;;;;;;;;;;;;;;5053074;28;20327;-70
2021/06/08 06:14:25;;;;;;;;;;;;;;;;;;5052770;28;19909;-70
2021/06/08 06:16:52;;;;;;;;;;;;;;;;;;5052594;28;19923;-71
2021/06/08 06:19:18;;;;;;;;;;;;;;;;;;5052083;28;19966;-69
2021/06/08 06:21:44;;;;;;;;;;;;;;;;;;5048784;28;19913;-71
2021/06/08 06:24:10;;;;;;;;;;;;;;;;;;5044585;28;20261;-69
2021/06/08 06:26:36;;;;;;;;;;;;;;;;;;5039704;28;19913;-70
2021/06/08 06:29:02;;;;;;;;;;;;;;;;;;5051312;28;19913;-69
2021/06/08 06:31:29;;;;;;;;;;;;;;;;;;5052150;28;20509;-69
2021/06/08 06:33:55;;;;;;;;;;;;;;;;;;5051917;28;19921;-71
2021/06/08 06:36:21;;;;;;;;;;;;;;;;;;5052192;28;19999;-71
2021/06/08 06:38:47;;;;;;;;;;;;;;;;;;5051579;28;20017;-68
2021/06/08 06:41:13;;;;;;;;;;;;;;;;;;5051906;28;19947;-70
2021/06/08 06:43:39;;;;;;;;;;;;;;;;;;5028165;28;19913;-70
2021/06/08 06:46:05;;;;;;;;;;;;;;;;;;5045954;28;19920;-70
2021/06/08 06:48:31;;;;;;;;;;;;;;;;;;5046068;28;19912;-70
2021/06/08 06:50:57;;;;;;;;;;;;;;;;;;5047568;28;19913;-70
2021/06/08 06:53:22;;;;;;;;;;;;;;;;;;5045966;28;19967;-69
2021/06/08 06:55:48;;;;;;;;;;;;;;;;;;5046460;28;20451;-70
2021/06/08 06:58:14;;;;;;;;;;;;;;;;;;5034705;28;19932;-69
2021/06/08 07:00:40;;;;;;;;;;;;;;;;;;5032666;28;19910;-70
2021/06/08 07:03:06;;;;;;;;;;;;;;;;;;5051645;28;19913;-72
2021/06/08 07:05:32;;;;;;;;;;;;;;;;;;5051422;28;20331;-70
2021/06/08 07:08:01;;;;;;;;;;;;;;;;;;5037551;28;20015;-69
2021/06/08 07:10:27;;;;;;;;;;;;;;;;;;5051789;28;20003;-70
2021/06/08 07:12:54;;;;;;;;;;;;;;;;;;5051744;28;19912;-71
2021/06/08 07:15:20;;;;;;;;;;;;;;;;;;5051545;28;19912;-70
2021/06/08 07:17:46;;;;;;;;;;;;;;;;;;5050937;28;19916;-70
2021/06/08 07:20:13;;;;;;;;;;;;;;;;;;5050766;28;19912;-70
2021/06/08 07:22:39;;;;;;;;;;;;;;;;;;5041234;28;19913;-70
2021/06/08 07:25:05;;;;;;;;;;;;;;;;;;5051376;28;19958;-70
2021/06/08 07:27:31;;;;;;;;;;;;;;;;;;5051566;28;19923;-69
2021/06/08 07:29:57;;;;;;;;;;;;;;;;;;5050829;28;20022;-71
2021/06/08 07:32:23;;;;;;;;;;;;;;;;;;5047824;28;19920;-71
2021/06/08 07:34:49;;;;;;;;;;;;;;;;;;5040636;28;20336;-72
2021/06/08 07:37:14;;;;;;;;;;;;;;;;;;5046699;28;19917;-70
2021/06/08 07:39:40;;;;;;;;;;;;;;;;;;5044209;28;20000;-69
2021/06/08 07:42:06;;;;;;;;;;;;;;;;;;5041697;28;19963;-70
2021/06/08 07:44:32;;;;;;;;;;;;;;;;;;5042270;28;19943;-70
2021/06/08 07:46:58;;;;;;;;;;;;;;;;;;5045306;28;20304;-70
2021/06/08 07:49:24;;;;;;;;;;;;;;;;;;5045901;28;19914;-70
2021/06/08 07:51:50;;;;;;;;;;;;;;;;;;5051317;28;19917;-70
2021/06/08 07:54:15;;;;;;;;;;;;;;;;;;5050950;28;19996;-72
2021/06/08 07:56:41;;;;;;;;;;;;;;;;;;5050760;28;19924;-71
2021/06/08 07:59:07;;;;;;;;;;;;;;;;;;5036901;28;20464;-72
2021/06/08 08:01:33;;;;;;;;;;;;;;;;;;5055477;28;20332;-70
2021/06/08 08:03:59;;;;;;;;;;;;;;;;;;5056218;28;19975;-70
2021/06/08 08:06:25;;;;;;;;;;;;;;;;;;5051915;28;19913;-72
2021/06/08 08:08:53;;;;;;;;;;;;;;;;;;5049702;28;20000;-70
2021/06/08 08:11:19;;;;;;;;;;;;;;;;;;5054637;28;19917;-71
2021/06/08 08:13:44;;;;;;;;;;;;;;;;;;5055697;28;19913;-71
2021/06/08 08:16:10;;;;;;;;;;;;;;;;;;5058323;28;19935;-72
2021/06/08 08:18:36;;;;;;;;;;;;;;;;;;5057794;28;20343;-71
2021/06/08 08:21:02;;;;;;;;;;;;;;;;;;5057326;28;19909;-70
2021/06/08 08:23:28;;;;;;;;;;;;;;;;;;5056810;28;20397;-71
2021/06/08 08:25:54;;;;;;;;;;;;;;;;;;5051993;28;19913;-72
2021/06/08 08:28:20;;;;;;;;;;;;;;;;;;5054709;28;19913;-71
2021/06/08 08:30:45;;;;;;;;;;;;;;;;;;5050927;28;19913;-70
2021/06/08 08:33:11;;;;;;;;;;;;;;;;;;5036380;28;19971;-70
2021/06/08 08:35:37;;;;;;;;;;;;;;;;;;5051889;28;19913;-71
2021/06/08 08:38:03;;;;;;;;;;;;;;;;;;5046622;28;19968;-71
2021/06/08 08:40:29;;;;;;;;;;;;;;;;;;5049352;28;19939;-71
2021/06/08 08:42:55;;;;;;;;;;;;;;;;;;5057205;28;20406;-71
2021/06/08 08:45:21;;;;;;;;;;;;;;;;;;5057753;28;20360;-71
2021/06/08 08:47:47;;;;;;;;;;;;;;;;;;5057537;28;19915;-72
2021/06/08 08:50:13;;;;;;;;;;;;;;;;;;5054025;28;19913;-73
2021/06/08 08:52:39;;;;;;;;;;;;;;;;;;5057497;28;20431;-74
2021/06/08 08:55:04;;;;;;;;;;;;;;;;;;5045357;28;19940;-71
2021/06/08 08:57:30;;;;;;;;;;;;;;;;;;5049061;28;19951;-71
2021/06/08 08:59:59;;;;;;;;;;;;;;;;;;5045729;28;19912;-70
2021/06/08 09:02:25;;;;;;;;;;;;;;;;;;5048976;28;19910;-71
2021/06/08 09:04:51;;;;;;;;;;;;;;;;;;5054318;28;20051;-71
2021/06/08 09:07:17;;;;;;;;;;;;;;;;;;5052357;28;19914;-70
2021/06/08 09:09:43;;;;;;;;;;;;;;;;;;5051313;28;19979;-71
2021/06/08 09:12:08;;;;;;;;;;;;;;;;;;5028410;28;20257;-71
2021/06/08 09:14:34;;;;;;;;;;;;;;;;;;5049124;28;19940;-70
2021/06/08 09:17:00;;;;;;;;;;;;;;;;;;5054027;28;19917;-70
2021/06/08 09:19:27;;;;;;;;;;;;;;;;;;5046139;28;19934;-71
2021/06/08 09:21:53;;;;;;;;;;;;;;;;;;5048525;28;19917;-71
2021/06/08 09:24:20;;;;;;;32.05;29.13;;;;;;;;;;5038999;28;20442;-71
2021/06/08 09:27:00;;;;;;;711.03;658.73;;;;;;;;;;5048535;28;20284;-71
2021/06/08 09:29:26;;;;;;;;;;;;;;;;;;5057265;28;20403;-72
2021/06/08 09:31:51;;;;;;;;;;;;;;;;;;5056841;28;19962;-71
2021/06/08 09:34:17;;;;;;;;;;;;;;;;;;5057396;28;19918;-71
2021/06/08 09:36:43;;;;;;;;;;;;;;;;;;5060124;28;19957;-70
2021/06/08 09:39:10;;;;;;;;;;;;;;;;;;5058123;28;19931;-72
2021/06/08 09:41:51;;;;;;;;;;;;;;;;;;5053632;28;19933;-70
2021/06/08 09:44:17;;;;;;;;;;;;;;;;;;5053969;28;19931;-71
2021/06/08 09:46:44;;;;;;;;;;;;;;;;;;5059880;28;19949;-71
2021/06/08 09:49:10;;;;;;;;;;;;;;;;;;5047829;28;20074;-70
2021/06/08 09:51:36;;;;;;;;;;;;;;;;;;5060088;28;20542;-71
2021/06/08 09:54:02;;;;;;;;;;;;;;;;;;5060109;28;19926;-71
2021/06/08 09:56:28;;;;;;;;;;;;;;;;;;5060325;28;19951;-71
2021/06/08 09:58:54;;;;;;;;;;;;;;;;;;5060463;28;19919;-71
2021/06/08 10:01:20;;;;;;;;;;;;;;;;;;5060025;28;20359;-71
2021/06/08 10:03:46;;;;;;;;;;;;;;;;;;5059924;28;19925;-73
2021/06/08 10:06:12;;;;;;;;;;;;;;;;;;5060446;28;20431;-71
2021/06/08 10:08:37;;;;;;;;;;;;;;;;;;5056998;28;19922;-71
2021/06/08 10:11:03;;;;;;;;;;;;;;;;;;5059921;28;20401;-71
2021/06/08 10:13:29;;;;;;;;;;;;;;;;;;5060093;28;19984;-71
2021/06/08 10:15:57;;;;;;;;;;;;;;;;;;5060420;28;20315;-72
2021/06/08 10:18:23;;;;;;;;;;;;;;;;;;5040327;28;19942;-73
2021/06/08 10:20:49;;;;;;;;;;;;;;;;;;5056501;28;20524;-72
2021/06/08 10:23:14;;;;;;;;;;;;;;;;;;5049959;28;19967;-71
2021/06/08 10:25:40;;;;;;;;;;;;;;;;;;5047098;28;19948;-70
2021/06/08 10:28:06;;;;;;;;;;;;;;;;;;5058007;28;20404;-71
2021/06/08 10:30:32;;;;;;;;;;;;;;;;;;5033162;28;19952;-72
2021/06/08 10:32:58;;;;;;;;;;;;;;;;;;5050788;28;19986;-71
2021/06/08 10:35:24;;;;;;;;;;;;;;;;;;5051589;28;19929;-71
2021/06/08 10:37:49;;;;;;;;;;;;;;;;;;5095828;22;19982;-71
2021/06/08 10:40:15;;;;;;;;;;;;;;;;;;5046085;28;19930;-70
2021/06/08 10:42:41;;;;;;;;;;;;;;;;;;5033630;28;20527;-70
2021/06/08 10:45:07;;;;;;;;;;;;;;;;;;5040858;28;19921;-69
2021/06/08 10:47:35;;;;;;;;;;;;;;;;;;5014156;28;19943;-71
2021/06/08 10:50:02;;;;;;;;;;;;;;;;;;5025795;28;19930;-71
2021/06/08 10:52:28;;;;;;;;;;;;;;;;;;5023411;28;19928;-71
2021/06/08 10:54:54;;;;;;;;;;;;;;;;;;5026412;28;20555;-71
2021/06/08 10:57:20;;;;;;;;;;;;;;;;;;5026303;28;19956;-72
2021/06/08 10:59:46;;;;;;;;;;;;;;;;;;5026605;28;20396;-72
2021/06/08 11:02:12;;;;;;;;;;;;;;;;;;5030790;28;19956;-71
2021/06/08 11:04:38;;;;;;;;;;;;;;;;;;5036236;28;19949;-71
2021/06/08 11:07:04;;;;;;;;;;;;;;;;;;5029906;28;20056;-70
2021/06/08 11:09:32;;;;;;;;;;;;;;;;;;5035574;28;19939;-71
2021/06/08 11:11:58;;;;;;;;;;;;;;;;;;5031959;28;19986;-70
2021/06/08 11:14:24;;;;;;;;;;;;;;;;;;5021764;28;19939;-71
2021/06/08 11:16:50;;;;;;;;;;;;;;;;;;5027202;28;20366;-71
2021/06/08 11:19:16;;;;;;;;;;;;;;;;;;5032198;28;19922;-72
2021/06/08 11:21:42;;;;;;;;;;;;;;;;;;5030211;28;19934;-71
2021/06/08 11:24:08;;;;;;;;;;;;;;;;;;5029896;28;19929;-71
2021/06/08 11:26:33;;;;;;;;;;;;;;;;;;5030002;28;20019;-71
2021/06/08 11:28:59;;;;;;;;;;;;;;;;;;5024221;28;19934;-71
2021/06/08 11:31:27;;;;;;;;;;;;;;;;;;5019163;28;20436;-72
2021/06/08 11:33:53;;;;;;;;;;;;;;;;;;5031003;28;19932;-71
2021/06/08 11:36:19;;;;;;;;;;;;;;;;;;5031041;28;20432;-71
2021/06/08 11:38:45;;;;;;;;;;;;;;;;;;5027455;28;19950;-71
2021/06/08 11:41:12;;;;;;;;;;;;;;;;;;5030297;28;19922;-71
2021/06/08 11:43:37;;;;;;;;;;;;;;;;;;5025292;28;19934;-71
2021/06/08 11:46:03;;;;;;;;;;;;;;;;;;5030449;28;19938;-71
2021/06/08 11:48:29;;;;;;;;;;;;;;;;;;5027542;28;20101;-71
2021/06/08 11:50:55;;;;;;;;;;;;;;;;;;5024114;28;19962;-71
2021/06/08 11:53:21;;;;;;;;;;;;;;;;;;5029075;28;19947;-71
2021/06/08 11:55:47;;;;;;;;;;;;;;;;;;5024605;28;19930;-71
2021/06/08 11:58:13;;;;;;;;;;;;;;;;;;5035071;28;19944;-71
2021/06/08 12:00:39;;;;;;;;;;;;;;;;;;5037601;28;19963;-71
2021/06/08 12:03:05;;;;;;;;;;;;;;;;;;5012929;28;19939;-71
2021/06/08 12:05:30;;;;;;;;;;;;;;;;;;5028874;28;19937;-71
2021/06/08 12:07:58;;;;;;;;;;;;;;;;;;5025632;28;19970;-71
2021/06/08 12:10:24;;;;;;;;;;;;;;;;;;5024130;28;19940;-71
2021/06/08 12:12:50;;;;;;;;;;;;;;;;;;5028008;28;20153;-70
2021/06/08 12:15:15;;;;;;;;;;;;;;;;;;5009358;28;19965;-70
2021/06/08 12:17:41;;;;;;;;;;;;;;;;;;5027446;28;19959;-70
2021/06/08 12:20:07;;;;;;;;;;;;;;;;;;5022606;28;19980;-71
2021/06/08 12:22:33;;;;;;;;;;;;;;;;;;5032915;28;19938;-71
2021/06/08 12:24:59;;;;;;;;;;;;;;;;;;5028117;28;20384;-72
2021/06/08 12:27:25;;;;;;;;;;;;;;;;;;5034538;28;19968;-71
2021/06/08 12:29:51;;;;;;;;;;;;;;;;;;5037531;28;20024;-72
2021/06/08 12:32:17;;;;;;;;;;;;;;;;;;5034464;28;19927;-71
2021/06/08 12:34:48;;;;;;;;;;;;;;;;;;5029291;28;20386;-72
2021/06/08 12:37:14;;;;;;;;;;;;;;;;;;5025222;28;19964;-72
2021/06/08 12:39:40;;;;;;;;;;;;;;;;;;5025108;28;19928;-71
2021/06/08 12:42:06;;;;;;;;;;;;;;;;;;5028094;28;19922;-71
2021/06/08 12:44:33;;;;;;;;;;;;;;;;;;5031394;28;19942;-72
2021/06/08 12:47:01;;;;;;;;;;;;;;;;;;5008597;28;19938;-71
2021/06/08 12:49:27;;;;;;;;;;;;;;;;;;5025872;28;20359;-72
2021/06/08 12:51:53;;;;;;;;;;;;;;;;;;5025840;28;19928;-71
2021/06/08 12:54:19;;;;;;;;;;;;;;;;;;4998859;28;20375;-71
2021/06/08 12:56:45;;;;;;;;;;;;;;;;;;5015985;28;19988;-71
2021/06/08 12:59:10;;;;;;;;;;;;;;;;;;5006909;28;19944;-72
2021/06/08 13:01:36;;;;;;;;;;;;;;;;;;5024607;28;19949;-71
2021/06/08 13:04:02;;;;;;;;;;;;;;;;;;5030824;28;19936;-72
2021/06/08 13:06:28;;;;;;;;;;;;;;;;;;5033496;28;19933;-73
2021/06/08 13:08:56;;;;;;;;;;;;;;;;;;5025882;28;19935;-72
2021/06/08 13:11:22;;;;;;;;;;;;;;;;;;5030535;28;19923;-72
2021/06/08 13:13:48;;;;;;;;;;;;;;;;;;5023999;28;19941;-73
2021/06/08 13:16:13;;;;;;;;;;;;;;;;;;5038771;28;19998;-73
2021/06/08 13:18:44;;;;;;;;;;;;;;;;;;5038060;28;20669;-73
2021/06/08 13:21:10;;;;;;;;;;;;;;;;;;5041660;28;19954;-72
2021/06/08 13:23:36;;;;;;;;;;;;;;;;;;5040950;28;20405;-72
2021/06/08 13:26:03;;;;;;;;;;;;;;;;;;5025682;28;19934;-72
2021/06/08 13:28:29;;;;;;;;;;;;;;;;;;5021145;28;19949;-71
2021/06/08 13:30:55;;;;;;;;;;;;;;;;;;5021152;28;20438;-71
2021/06/08 13:33:21;;;;;;;;;;;;;;;;;;5006200;28;19926;-71
2021/06/08 13:35:47;;;;;;;;;;;;;;;;;;5030905;28;19935;-72
2021/06/08 13:38:13;;;;;;;;;;;;;;;;;;5027779;28;19985;-72
2021/06/08 13:40:38;;;;;;;;;;;;;;;;;;5003273;28;19973;-73
2021/06/08 13:43:04;;;;;;;;;;;;;;;;;;5038188;28;19931;-72
2021/06/08 13:45:30;;;;;;;;;;;;;;;;;;5021118;28;19926;-72
2021/06/08 13:47:57;;;;;;;;;;;;;;;;;;5021195;28;19945;-70
2021/06/08 13:50:23;;;;;;;;;;;;;;;;;;5034992;28;19970;-71
2021/06/08 13:53:00;;;;;;;;;;;;;;;;;;5040478;28;19921;-71
2021/06/08 13:55:26;;;;;;;;;;;;;;;;;;5028400;28;20294;-70
2021/06/08 14:00:17;;;;;;;;;;;;;;;;;;5030398;28;19956;-71
2021/06/08 14:00:37;;;;;;;;;;;;;;;;;;5040484;28;19927;-70
2021/06/08 14:03:03;;;;;;;;;;;;;;;;;;5040756;28;20396;-71
2021/06/08 14:05:29;;;;;;;;;;;;;;;;;;5028296;28;19934;-71
2021/06/08 14:07:55;;;;;;;;;;;;;;;;;;5021249;28;19950;-71
2021/06/08 14:10:21;;;;;;;;;;;;;;;;;;5020898;28;19943;-72
2021/06/08 14:12:47;;;;;;;;;;;;;;;;;;5032230;28;19931;-71
2021/06/08 14:15:15;;;;;;;;;;;;;;;;;;5034119;28;20430;-72
2021/06/08 14:17:44;;;;;;;;;;;;;;;;;;5013533;28;19957;-72
2021/06/08 14:20:10;;;;;;;;;;;;;;;;;;5020686;28;19922;-72
2021/06/08 14:22:36;;;;;;;;;;;;;;;;;;5028076;28;20416;-73
2021/06/08 14:25:01;;;;;;;;;;;;;;;;;;5040312;28;20398;-71
2021/06/08 14:27:29;;;;;;;;;;;;;;;;;;5039978;28;20091;-72
2021/06/08 14:29:55;;;;;;;;;;;;;;;;;;5039777;28;19921;-71
2021/06/08 14:32:21;;;;;;;;;;;;;;;;;;5039679;28;19922;-72
2021/06/08 14:34:47;;;;;;;;;;;;;;;;;;5038581;28;19936;-72
2021/06/08 14:37:13;;;;;;;;;;;;;;;;;;5038929;28;19956;-70
2021/06/08 14:39:39;;;;;;;;;;;;;;;;;;5025470;28;19945;-70
2021/06/08 14:42:04;;;;;;;;;;;;;;;;;;5020011;28;20043;-71
2021/06/08 14:44:30;;;;;;;;;;;;;;;;;;5021446;28;19947;-71
2021/06/08 14:46:57;;;;;;;;;;;;;;;;;;5035054;28;19951;-71
2021/06/08 14:49:23;;;;;;;;;;;;;;;;;;5027389;28;19928;-71
2021/06/08 14:51:49;;;;;;;;;;;;;;;;;;5025169;28;19932;-70
2021/06/08 14:54:14;;;;;;;;;;;;;;;;;;5022223;28;19929;-71
2021/06/08 14:56:40;;;;;;;;;;;;;;;;;;5029360;28;19946;-70
2021/06/08 14:59:06;;;;;;;;;;;;;;;;;;5036674;28;19925;-71
2021/06/08 15:01:32;;;;;;;;;;;;;;;;;;5038209;28;20467;-70
2021/06/08 15:03:58;;;;;;;;;;;;;;;;;;5022512;28;20028;-71
2021/06/08 15:06:24;;;;;;;;;;;;;;;;;;5022808;28;20301;-71
2021/06/08 15:08:50;;;;;;;;;;;;;;;;;;5025213;28;20023;-70
2021/06/08 15:11:16;;;;;;;;;;;;;;;;;;5033241;28;19987;-70
2021/06/08 15:13:41;;;;;;;;;;;;;;;;;;5029363;28;19965;-70
2021/06/08 15:16:07;;;;;;;;;;;;;;;;;;5020419;28;20016;-71
2021/06/08 15:18:33;;;;;;;;;;;;;;;;;;5026851;28;19940;-71
2021/06/08 15:20:59;;;;;;;;;;;;;;;;;;5004047;28;19972;-71
2021/06/08 15:23:25;;;;;;;;;;;;;;;;;;5019580;28;19934;-70
2021/06/08 15:25:52;;;;;;;;;;;;;;;;;;5019086;28;19922;-70
2021/06/08 15:28:21;;;;;;;;;;;;;;;;;;5020404;28;19944;-70
2021/06/08 15:30:47;;;;;;;;;;;;;;;;;;5018757;28;19922;-70
2021/06/08 15:33:13;;;;;;;;;;;;;;;;;;5024498;28;20334;-68
2021/06/08 15:35:39;;;;;;;;;;;;;;;;;;5023323;28;20516;-70
2021/06/08 15:38:05;;;;;;;;;;;;;;;;;;5013447;28;19954;-69
2021/06/08 15:40:31;;;;;;;;;;;;;;;;;;5013822;28;20304;-69
2021/06/08 15:42:57;;;;;;;;;;;;;;;;;;5026908;28;19928;-69
2021/06/08 15:45:23;;;;;;;;;;;;;;;;;;5012104;28;19991;-69
2021/06/08 15:47:48;;;;;;;;;;;;;;;;;;5016453;28;20035;-70
2021/06/08 15:50:14;;;;;;;;;;;;;;;;;;5022386;28;19973;-69
2021/06/08 15:52:41;;;;;;;;;;;;;;;;;;5027577;28;19930;-71
2021/06/08 15:55:07;;;;;;;;;;;;;;;;;;5021096;28;19966;-70
2021/06/08 15:57:33;;;;;;;;;;;;;;;;;;5019037;28;19950;-69
2021/06/08 15:59:59;;;;;;;;;;;;;;;;;;5032362;28;19931;-70
2021/06/08 16:02:24;;;;;;;;;;;;;;;;;;5022490;28;19937;-69
2021/06/08 16:04:50;;;;;;;;;;;;;;;;;;5027354;28;19937;-69
2021/06/08 16:07:16;;;;;;;;;;;;;;;;;;5031555;28;19945;-69
2021/06/08 16:09:42;;;;;;;;;;;;;;;;;;5026964;28;19931;-69
2021/06/08 16:12:08;;;;;;;;;;;;;;;;;;5031477;28;19933;-69
2021/06/08 16:14:34;;;;;;;;;;;;;;;;;;5026348;28;19928;-69
2021/06/08 16:17:00;;;;;;;;;;;;;;;;;;5023277;28;19984;-70
2021/06/08 16:19:26;;;;;;;;;;;;;;;;;;5023673;28;19927;-69
2021/06/08 16:21:51;;;;;;;;;;;;;;;;;;5028451;28;19930;-69
2021/06/08 16:24:19;;;;;;;;;;;;;;;;;;5031986;28;20053;-69
2021/06/08 16:26:45;;;;;;;;;;;;;;;;;;5017039;28;19932;-70
2021/06/08 16:29:11;;;;;;;;;;;;;;;;;;5017449;28;20008;-70
2021/06/08 16:31:37;;;;;;;;;;;;;;;;;;4999087;28;19938;-69
2021/06/08 16:34:07;;;;;;;;;;;;;;;;;;5028583;28;19931;-70
2021/06/08 16:36:33;;;;;;;;;;;;;;;;;;5010970;28;19983;-70